sensor_id;sensor_type;location;lat;lon;timestamp;temperature;humidity
68924;DHT22;55961;52.156;20.942;2022-10-19T00:02:03;13.20;81.30
68924;DHT22;55961;52.156;20.942;2022-10-19T00:04:30;13.10;81.50
68924;DHT22;55961;52.156;20.942;2022-10-19T00:06:55;13.10;81.60
68924;DHT22;55961;52.156;20.942;2022-10-19T00:09:21;13.10;81.80
68924;DHT22;55961;52.156;20.942;2022-10-19T00:11:49;13.10;81.90
68924;DHT22;55961;52.156;20.942;2022-10-19T00:14:19;13.10;82.10
68924;DHT22;55961;52.156;20.942;2022-10-19T00:16:46;13.00;82.10
68924;DHT22;55961;52.156;20.942;2022-10-19T00:19:19;13.00;81.90
68924;DHT22;55961;52.156;20.942;2022-10-19T00:21:45;13.00;81.60
68924;DHT22;55961;52.156;20.942;2022-10-19T00:24:11;13.00;81.60
68924;DHT22;55961;52.156;20.942;2022-10-19T00:26:37;13.00;81.50
68924;DHT22;55961;52.156;20.942;2022-10-19T00:29:05;12.90;81.10
68924;DHT22;55961;52.156;20.942;2022-10-19T00:31:31;12.90;80.80
68924;DHT22;55961;52.156;20.942;2022-10-19T00:33:58;12.80;80.60
68924;DHT22;55961;52.156;20.942;2022-10-19T00:36:32;12.80;80.50
68924;DHT22;55961;52.156;20.942;2022-10-19T00:38:58;12.70;80.50
68924;DHT22;55961;52.156;20.942;2022-10-19T00:41:28;12.70;80.70
68924;DHT22;55961;52.156;20.942;2022-10-19T00:43:58;12.60;80.90
68924;DHT22;55961;52.156;20.942;2022-10-19T00:46:26;12.60;80.90
68924;DHT22;55961;52.156;20.942;2022-10-19T00:48:56;12.50;81.00
68924;DHT22;55961;52.156;20.942;2022-10-19T00:51:25;12.50;81.00
68924;DHT22;55961;52.156;20.942;2022-10-19T00:53:52;12.40;81.10
68924;DHT22;55961;52.156;20.942;2022-10-19T00:56:18;12.40;81.00
68924;DHT22;55961;52.156;20.942;2022-10-19T00:58:45;12.30;81.00
68924;DHT22;55961;52.156;20.942;2022-10-19T01:01:15;12.30;81.20
68924;DHT22;55961;52.156;20.942;2022-10-19T01:03:42;12.20;81.20
68924;DHT22;55961;52.156;20.942;2022-10-19T01:06:09;12.20;81.20
68924;DHT22;55961;52.156;20.942;2022-10-19T01:08:36;12.10;81.40
68924;DHT22;55961;52.156;20.942;2022-10-19T01:21:44;11.90;81.80
68924;DHT22;55961;52.156;20.942;2022-10-19T01:30:06;11.80;82.00
68924;DHT22;55961;52.156;20.942;2022-10-19T01:32:48;11.80;81.90
68924;DHT22;55961;52.156;20.942;2022-10-19T01:35:19;11.80;81.80
68924;DHT22;55961;52.156;20.942;2022-10-19T01:40:27;11.70;81.90
68924;DHT22;55961;52.156;20.942;2022-10-19T01:43:10;11.70;82.00
68924;DHT22;55961;52.156;20.942;2022-10-19T01:45:45;11.70;82.10
68924;DHT22;55961;52.156;20.942;2022-10-19T01:48:16;11.70;82.30
68924;DHT22;55961;52.156;20.942;2022-10-19T01:51:05;11.70;82.40
68924;DHT22;55961;52.156;20.942;2022-10-19T01:53:38;11.70;82.50
68924;DHT22;55961;52.156;20.942;2022-10-19T01:56:06;11.70;82.50
68924;DHT22;55961;52.156;20.942;2022-10-19T01:58:35;11.70;82.60
68924;DHT22;55961;52.156;20.942;2022-10-19T02:01:04;11.70;82.50
68924;DHT22;55961;52.156;20.942;2022-10-19T02:03:33;11.70;82.30
68924;DHT22;55961;52.156;20.942;2022-10-19T02:05:59;11.70;82.30
68924;DHT22;55961;52.156;20.942;2022-10-19T02:08:30;11.60;82.40
68924;DHT22;55961;52.156;20.942;2022-10-19T02:11:00;11.60;82.40
68924;DHT22;55961;52.156;20.942;2022-10-19T02:13:28;11.60;82.40
68924;DHT22;55961;52.156;20.942;2022-10-19T02:15:56;11.60;82.50
68924;DHT22;55961;52.156;20.942;2022-10-19T02:18:30;11.70;82.50
68924;DHT22;55961;52.156;20.942;2022-10-19T02:21:00;11.60;82.60
68924;DHT22;55961;52.156;20.942;2022-10-19T02:23:26;11.60;82.70
68924;DHT22;55961;52.156;20.942;2022-10-19T02:25:53;11.60;82.70
68924;DHT22;55961;52.156;20.942;2022-10-19T02:28:21;11.60;82.80
68924;DHT22;55961;52.156;20.942;2022-10-19T02:30:47;11.60;82.70
68924;DHT22;55961;52.156;20.942;2022-10-19T02:33:13;11.60;82.60
68924;DHT22;55961;52.156;20.942;2022-10-19T02:35:39;11.60;82.60
68924;DHT22;55961;52.156;20.942;2022-10-19T02:38:06;11.60;82.50
68924;DHT22;55961;52.156;20.942;2022-10-19T02:40:38;11.50;82.50
68924;DHT22;55961;52.156;20.942;2022-10-19T02:43:10;11.50;82.40
68924;DHT22;55961;52.156;20.942;2022-10-19T02:45:47;11.50;82.40
68924;DHT22;55961;52.156;20.942;2022-10-19T02:48:20;11.50;82.30
68924;DHT22;55961;52.156;20.942;2022-10-19T02:50:47;11.50;82.30
68924;DHT22;55961;52.156;20.942;2022-10-19T02:53:14;11.50;82.50
68924;DHT22;55961;52.156;20.942;2022-10-19T02:55:41;11.50;82.40
68924;DHT22;55961;52.156;20.942;2022-10-19T02:58:07;11.50;82.30
68924;DHT22;55961;52.156;20.942;2022-10-19T03:00:33;11.50;82.10
68924;DHT22;55961;52.156;20.942;2022-10-19T03:02:59;11.50;82.20
68924;DHT22;55961;52.156;20.942;2022-10-19T03:05:25;11.40;82.30
68924;DHT22;55961;52.156;20.942;2022-10-19T03:07:51;11.40;82.20
68924;DHT22;55961;52.156;20.942;2022-10-19T03:10:17;11.40;82.10
68924;DHT22;55961;52.156;20.942;2022-10-19T03:12:42;11.40;82.00
68924;DHT22;55961;52.156;20.942;2022-10-19T03:15:13;11.40;82.00
68924;DHT22;55961;52.156;20.942;2022-10-19T03:17:39;11.40;81.80
68924;DHT22;55961;52.156;20.942;2022-10-19T03:20:05;11.30;81.80
68924;DHT22;55961;52.156;20.942;2022-10-19T03:22:31;11.30;81.90
68924;DHT22;55961;52.156;20.942;2022-10-19T03:24:57;11.30;81.90
68924;DHT22;55961;52.156;20.942;2022-10-19T03:27:22;11.20;81.90
68924;DHT22;55961;52.156;20.942;2022-10-19T03:29:48;11.20;81.90
68924;DHT22;55961;52.156;20.942;2022-10-19T03:32:14;11.20;81.80
68924;DHT22;55961;52.156;20.942;2022-10-19T03:34:40;11.20;81.90
68924;DHT22;55961;52.156;20.942;2022-10-19T03:37:06;11.10;81.80
68924;DHT22;55961;52.156;20.942;2022-10-19T03:39:33;11.10;81.90
68924;DHT22;55961;52.156;20.942;2022-10-19T03:41:59;11.10;82.10
68924;DHT22;55961;52.156;20.942;2022-10-19T03:44:25;11.10;82.20
68924;DHT22;55961;52.156;20.942;2022-10-19T03:46:51;11.00;82.30
68924;DHT22;55961;52.156;20.942;2022-10-19T03:49:17;11.10;82.30
68924;DHT22;55961;52.156;20.942;2022-10-19T03:51:43;11.00;82.40
68924;DHT22;55961;52.156;20.942;2022-10-19T03:54:14;11.00;82.40
68924;DHT22;55961;52.156;20.942;2022-10-19T03:56:41;11.00;82.50
68924;DHT22;55961;52.156;20.942;2022-10-19T03:59:07;11.00;82.50
68924;DHT22;55961;52.156;20.942;2022-10-19T04:01:36;11.00;82.50
68924;DHT22;55961;52.156;20.942;2022-10-19T04:04:09;11.00;82.30
68924;DHT22;55961;52.156;20.942;2022-10-19T04:06:37;11.00;82.10
68924;DHT22;55961;52.156;20.942;2022-10-19T04:09:05;11.00;82.10
68924;DHT22;55961;52.156;20.942;2022-10-19T04:11:32;11.00;82.10
68924;DHT22;55961;52.156;20.942;2022-10-19T04:13:59;11.00;81.90
68924;DHT22;55961;52.156;20.942;2022-10-19T04:16:26;11.00;81.80
68924;DHT22;55961;52.156;20.942;2022-10-19T04:18:53;11.00;81.90
68924;DHT22;55961;52.156;20.942;2022-10-19T04:21:30;11.00;81.70
68924;DHT22;55961;52.156;20.942;2022-10-19T04:24:09;11.00;81.80
68924;DHT22;55961;52.156;20.942;2022-10-19T04:26:45;11.00;81.60
68924;DHT22;55961;52.156;20.942;2022-10-19T04:29:11;11.00;81.50
68924;DHT22;55961;52.156;20.942;2022-10-19T04:31:38;11.00;81.50
68924;DHT22;55961;52.156;20.942;2022-10-19T04:34:05;11.00;81.40
68924;DHT22;55961;52.156;20.942;2022-10-19T04:36:31;11.00;81.20
68924;DHT22;55961;52.156;20.942;2022-10-19T04:38:57;11.00;80.90
68924;DHT22;55961;52.156;20.942;2022-10-19T04:41:23;11.00;80.90
68924;DHT22;55961;52.156;20.942;2022-10-19T04:43:54;11.00;81.00
68924;DHT22;55961;52.156;20.942;2022-10-19T04:46:20;11.00;80.60
68924;DHT22;55961;52.156;20.942;2022-10-19T04:48:47;11.10;80.50
68924;DHT22;55961;52.156;20.942;2022-10-19T04:51:13;11.00;80.40
68924;DHT22;55961;52.156;20.942;2022-10-19T04:53:41;11.10;80.40
68924;DHT22;55961;52.156;20.942;2022-10-19T04:56:12;11.10;80.10
68924;DHT22;55961;52.156;20.942;2022-10-19T04:58:38;11.10;80.00
68924;DHT22;55961;52.156;20.942;2022-10-19T05:03:38;11.10;80.00
68924;DHT22;55961;52.156;20.942;2022-10-19T05:06:04;11.10;79.80
68924;DHT22;55961;52.156;20.942;2022-10-19T05:08:31;11.00;79.80
68924;DHT22;55961;52.156;20.942;2022-10-19T05:11:06;11.00;79.70
68924;DHT22;55961;52.156;20.942;2022-10-19T05:13:33;11.00;79.70
68924;DHT22;55961;52.156;20.942;2022-10-19T05:16:00;11.00;79.60
68924;DHT22;55961;52.156;20.942;2022-10-19T05:18:27;11.00;79.30
68924;DHT22;55961;52.156;20.942;2022-10-19T05:21:19;11.10;79.10
68924;DHT22;55961;52.156;20.942;2022-10-19T05:23:49;11.00;79.00
68924;DHT22;55961;52.156;20.942;2022-10-19T05:26:17;11.10;79.10
68924;DHT22;55961;52.156;20.942;2022-10-19T05:28:51;11.10;79.00
68924;DHT22;55961;52.156;20.942;2022-10-19T05:31:22;11.00;78.60
68924;DHT22;55961;52.156;20.942;2022-10-19T05:33:48;11.10;78.60
68924;DHT22;55961;52.156;20.942;2022-10-19T05:36:28;11.10;78.60
68924;DHT22;55961;52.156;20.942;2022-10-19T05:38:57;11.10;78.30
68924;DHT22;55961;52.156;20.942;2022-10-19T05:41:24;11.10;78.20
68924;DHT22;55961;52.156;20.942;2022-10-19T05:43:53;11.10;78.00
68924;DHT22;55961;52.156;20.942;2022-10-19T05:46:19;11.00;78.10
68924;DHT22;55961;52.156;20.942;2022-10-19T05:48:46;11.10;78.00
68924;DHT22;55961;52.156;20.942;2022-10-19T05:51:14;11.00;77.50
68924;DHT22;55961;52.156;20.942;2022-10-19T05:53:41;11.00;77.70
68924;DHT22;55961;52.156;20.942;2022-10-19T05:56:08;11.10;77.90
68924;DHT22;55961;52.156;20.942;2022-10-19T05:58:36;11.10;77.90
68924;DHT22;55961;52.156;20.942;2022-10-19T06:01:01;11.10;77.70
68924;DHT22;55961;52.156;20.942;2022-10-19T06:03:28;11.10;77.40
68924;DHT22;55961;52.156;20.942;2022-10-19T06:05:54;11.10;77.40
68924;DHT22;55961;52.156;20.942;2022-10-19T06:08:22;11.10;77.40
68924;DHT22;55961;52.156;20.942;2022-10-19T06:10:49;11.10;77.40
68924;DHT22;55961;52.156;20.942;2022-10-19T06:13:17;11.20;77.20
68924;DHT22;55961;52.156;20.942;2022-10-19T06:15:43;11.10;77.40
68924;DHT22;55961;52.156;20.942;2022-10-19T06:18:10;11.10;77.80
68924;DHT22;55961;52.156;20.942;2022-10-19T06:20:38;11.10;78.10
68924;DHT22;55961;52.156;20.942;2022-10-19T06:23:05;11.20;77.90
68924;DHT22;55961;52.156;20.942;2022-10-19T06:25:32;11.20;77.90
68924;DHT22;55961;52.156;20.942;2022-10-19T06:27:59;11.20;78.00
68924;DHT22;55961;52.156;20.942;2022-10-19T06:30:25;11.20;77.90
68924;DHT22;55961;52.156;20.942;2022-10-19T06:32:51;11.20;78.40
68924;DHT22;55961;52.156;20.942;2022-10-19T06:35:17;11.20;78.40
68924;DHT22;55961;52.156;20.942;2022-10-19T06:37:44;11.20;78.90
68924;DHT22;55961;52.156;20.942;2022-10-19T06:40:10;11.20;79.30
68924;DHT22;55961;52.156;20.942;2022-10-19T06:42:36;11.20;79.50
68924;DHT22;55961;52.156;20.942;2022-10-19T06:45:06;11.20;79.60
68924;DHT22;55961;52.156;20.942;2022-10-19T06:47:33;11.20;79.80
68924;DHT22;55961;52.156;20.942;2022-10-19T06:49:59;11.20;79.90
68924;DHT22;55961;52.156;20.942;2022-10-19T06:52:25;11.20;79.70
68924;DHT22;55961;52.156;20.942;2022-10-19T06:54:51;11.20;80.00
68924;DHT22;55961;52.156;20.942;2022-10-19T06:57:17;11.20;79.90
68924;DHT22;55961;52.156;20.942;2022-10-19T06:59:43;11.20;80.10
68924;DHT22;55961;52.156;20.942;2022-10-19T07:02:11;11.30;80.20
68924;DHT22;55961;52.156;20.942;2022-10-19T07:04:37;11.30;80.30
68924;DHT22;55961;52.156;20.942;2022-10-19T07:07:03;11.30;80.50
68924;DHT22;55961;52.156;20.942;2022-10-19T07:09:29;11.30;80.10
68924;DHT22;55961;52.156;20.942;2022-10-19T07:11:55;11.30;80.30
68924;DHT22;55961;52.156;20.942;2022-10-19T07:14:21;11.30;79.80
68924;DHT22;55961;52.156;20.942;2022-10-19T07:16:50;11.30;79.70
68924;DHT22;55961;52.156;20.942;2022-10-19T07:19:16;11.40;80.10
68924;DHT22;55961;52.156;20.942;2022-10-19T07:21:42;11.40;80.00
68924;DHT22;55961;52.156;20.942;2022-10-19T07:24:09;11.50;79.90
68924;DHT22;55961;52.156;20.942;2022-10-19T07:26:35;11.50;78.80
68924;DHT22;55961;52.156;20.942;2022-10-19T07:29:02;11.60;79.10
68924;DHT22;55961;52.156;20.942;2022-10-19T07:31:28;11.60;78.90
68924;DHT22;55961;52.156;20.942;2022-10-19T07:33:56;11.70;78.20
68924;DHT22;55961;52.156;20.942;2022-10-19T07:36:23;11.70;77.40
68924;DHT22;55961;52.156;20.942;2022-10-19T07:38:50;11.70;77.80
68924;DHT22;55961;52.156;20.942;2022-10-19T07:41:18;11.70;77.40
68924;DHT22;55961;52.156;20.942;2022-10-19T07:43:45;11.80;77.10
68924;DHT22;55961;52.156;20.942;2022-10-19T07:46:14;11.90;77.20
68924;DHT22;55961;52.156;20.942;2022-10-19T07:48:41;11.90;77.10
68924;DHT22;55961;52.156;20.942;2022-10-19T07:51:08;11.90;76.30
68924;DHT22;55961;52.156;20.942;2022-10-19T07:53:35;12.00;76.30
68924;DHT22;55961;52.156;20.942;2022-10-19T07:56:10;12.00;75.90
68924;DHT22;55961;52.156;20.942;2022-10-19T07:58:36;12.00;76.20
68924;DHT22;55961;52.156;20.942;2022-10-19T08:01:05;12.00;76.20
68924;DHT22;55961;52.156;20.942;2022-10-19T08:03:32;12.10;75.60
68924;DHT22;55961;52.156;20.942;2022-10-19T08:06:03;12.10;75.80
68924;DHT22;55961;52.156;20.942;2022-10-19T08:08:29;12.10;75.40
68924;DHT22;55961;52.156;20.942;2022-10-19T08:10:55;12.20;75.00
68924;DHT22;55961;52.156;20.942;2022-10-19T08:13:21;12.20;74.80
68924;DHT22;55961;52.156;20.942;2022-10-19T08:15:47;12.20;74.90
68924;DHT22;55961;52.156;20.942;2022-10-19T08:18:13;12.30;75.30
68924;DHT22;55961;52.156;20.942;2022-10-19T08:20:42;12.30;75.50
68924;DHT22;55961;52.156;20.942;2022-10-19T08:23:08;12.30;75.70
68924;DHT22;55961;52.156;20.942;2022-10-19T08:25:35;12.20;75.70
68924;DHT22;55961;52.156;20.942;2022-10-19T08:28:02;12.20;75.80
68924;DHT22;55961;52.156;20.942;2022-10-19T08:30:28;12.10;76.10
68924;DHT22;55961;52.156;20.942;2022-10-19T08:32:54;12.10;76.80
68924;DHT22;55961;52.156;20.942;2022-10-19T08:35:20;12.00;77.00
68924;DHT22;55961;52.156;20.942;2022-10-19T08:37:45;12.00;77.10
68924;DHT22;55961;52.156;20.942;2022-10-19T08:40:22;12.00;77.60
68924;DHT22;55961;52.156;20.942;2022-10-19T08:48:26;11.90;78.30
68924;DHT22;55961;52.156;20.942;2022-10-19T08:50:53;11.90;78.70
68924;DHT22;55961;52.156;20.942;2022-10-19T08:53:30;11.90;78.40
68924;DHT22;55961;52.156;20.942;2022-10-19T09:01:56;11.90;78.90
68924;DHT22;55961;52.156;20.942;2022-10-19T09:04:34;11.90;78.60
68924;DHT22;55961;52.156;20.942;2022-10-19T09:07:29;12.00;78.70
68924;DHT22;55961;52.156;20.942;2022-10-19T09:10:13;12.00;78.30
68924;DHT22;55961;52.156;20.942;2022-10-19T09:12:49;12.00;78.10
68924;DHT22;55961;52.156;20.942;2022-10-19T09:15:21;12.00;77.40
68924;DHT22;55961;52.156;20.942;2022-10-19T09:17:48;12.00;77.70
68924;DHT22;55961;52.156;20.942;2022-10-19T09:20:18;12.00;78.60
68924;DHT22;55961;52.156;20.942;2022-10-19T09:22:45;12.10;78.30
68924;DHT22;55961;52.156;20.942;2022-10-19T09:25:20;12.10;77.60
68924;DHT22;55961;52.156;20.942;2022-10-19T09:27:49;12.20;77.50
68924;DHT22;55961;52.156;20.942;2022-10-19T09:30:22;12.20;77.20
68924;DHT22;55961;52.156;20.942;2022-10-19T09:32:54;12.30;76.90
68924;DHT22;55961;52.156;20.942;2022-10-19T09:35:42;12.30;76.90
68924;DHT22;55961;52.156;20.942;2022-10-19T09:38:11;12.30;77.50
68924;DHT22;55961;52.156;20.942;2022-10-19T09:40:38;12.40;77.30
68924;DHT22;55961;52.156;20.942;2022-10-19T09:43:06;12.40;77.50
68924;DHT22;55961;52.156;20.942;2022-10-19T09:45:56;12.40;77.40
68924;DHT22;55961;52.156;20.942;2022-10-19T09:51:01;12.30;77.60
68924;DHT22;55961;52.156;20.942;2022-10-19T09:53:28;12.30;78.20
68924;DHT22;55961;52.156;20.942;2022-10-19T09:56:06;12.30;78.60
68924;DHT22;55961;52.156;20.942;2022-10-19T09:58:33;12.30;78.40
68924;DHT22;55961;52.156;20.942;2022-10-19T10:01:01;12.30;78.10
68924;DHT22;55961;52.156;20.942;2022-10-19T10:03:33;12.30;77.50
68924;DHT22;55961;52.156;20.942;2022-10-19T10:06:12;12.30;77.60
68924;DHT22;55961;52.156;20.942;2022-10-19T10:08:45;12.30;77.80
68924;DHT22;55961;52.156;20.942;2022-10-19T10:11:14;12.30;78.00
68924;DHT22;55961;52.156;20.942;2022-10-19T10:13:42;12.40;77.60
68924;DHT22;55961;52.156;20.942;2022-10-19T10:16:14;12.40;76.40
68924;DHT22;55961;52.156;20.942;2022-10-19T10:18:57;12.40;76.40
68924;DHT22;55961;52.156;20.942;2022-10-19T10:21:29;12.40;75.90
68924;DHT22;55961;52.156;20.942;2022-10-19T10:26:25;12.30;70.90
68924;DHT22;55961;52.156;20.942;2022-10-19T10:28:51;12.20;71.00
68924;DHT22;55961;52.156;20.942;2022-10-19T10:31:23;12.10;72.00
68924;DHT22;55961;52.156;20.942;2022-10-19T10:34:17;12.00;72.20
68924;DHT22;55961;52.156;20.942;2022-10-19T10:36:48;11.90;72.10
68924;DHT22;55961;52.156;20.942;2022-10-19T10:39:16;11.80;72.20
68924;DHT22;55961;52.156;20.942;2022-10-19T10:41:43;11.80;72.70
68924;DHT22;55961;52.156;20.942;2022-10-19T10:44:25;11.70;72.90
68924;DHT22;55961;52.156;20.942;2022-10-19T10:46:56;11.70;72.20
68924;DHT22;55961;52.156;20.942;2022-10-19T10:49:28;11.70;72.40
68924;DHT22;55961;52.156;20.942;2022-10-19T10:51:56;11.60;72.60
68924;DHT22;55961;52.156;20.942;2022-10-19T10:54:28;11.60;73.20
68924;DHT22;55961;52.156;20.942;2022-10-19T11:05:18;11.60;72.90
68924;DHT22;55961;52.156;20.942;2022-10-19T11:08:02;11.60;72.40
68924;DHT22;55961;52.156;20.942;2022-10-19T11:10:34;11.60;72.80
68924;DHT22;55961;52.156;20.942;2022-10-19T11:13:09;11.70;74.00
68924;DHT22;55961;52.156;20.942;2022-10-19T11:18:38;11.70;74.70
68924;DHT22;55961;52.156;20.942;2022-10-19T11:21:23;11.80;74.30
68924;DHT22;55961;52.156;20.942;2022-10-19T11:26:49;11.90;74.60
68924;DHT22;55961;52.156;20.942;2022-10-19T11:31:53;12.10;75.30
68924;DHT22;55961;52.156;20.942;2022-10-19T11:37:16;12.40;76.70
68924;DHT22;55961;52.156;20.942;2022-10-19T11:39:55;12.70;75.50
68924;DHT22;55961;52.156;20.942;2022-10-19T11:47:50;13.40;71.10
68924;DHT22;55961;52.156;20.942;2022-10-19T11:58:37;13.80;66.40
68924;DHT22;55961;52.156;20.942;2022-10-19T12:02:09;13.90;61.90
68924;DHT22;55961;52.156;20.942;2022-10-19T12:10:31;13.80;60.60
68924;DHT22;55961;52.156;20.942;2022-10-19T12:13:02;13.70;60.80
68924;DHT22;55961;52.156;20.942;2022-10-19T12:15:32;13.60;61.00
68924;DHT22;55961;52.156;20.942;2022-10-19T12:18:40;13.60;61.50
68924;DHT22;55961;52.156;20.942;2022-10-19T12:21:32;13.50;61.60
68924;DHT22;55961;52.156;20.942;2022-10-19T12:24:00;13.40;62.00
68924;DHT22;55961;52.156;20.942;2022-10-19T12:26:30;13.40;62.30
68924;DHT22;55961;52.156;20.942;2022-10-19T12:29:02;13.30;61.60
68924;DHT22;55961;52.156;20.942;2022-10-19T12:31:29;13.30;60.10
68924;DHT22;55961;52.156;20.942;2022-10-19T12:39:48;13.20;60.10
68924;DHT22;55961;52.156;20.942;2022-10-19T12:45:40;13.10;58.80
68924;DHT22;55961;52.156;20.942;2022-10-19T12:53:35;13.10;58.50
68924;DHT22;55961;52.156;20.942;2022-10-19T12:56:12;13.10;58.10
68924;DHT22;55961;52.156;20.942;2022-10-19T13:01:23;13.30;57.40
68924;DHT22;55961;52.156;20.942;2022-10-19T13:06:33;13.60;57.80
68924;DHT22;55961;52.156;20.942;2022-10-19T13:09:02;13.80;56.50
68924;DHT22;55961;52.156;20.942;2022-10-19T13:11:29;13.90;56.70
68924;DHT22;55961;52.156;20.942;2022-10-19T13:22:44;14.30;53.80
68924;DHT22;55961;52.156;20.942;2022-10-19T13:27:49;14.50;53.40
68924;DHT22;55961;52.156;20.942;2022-10-19T13:44:01;14.80;52.20
68924;DHT22;55961;52.156;20.942;2022-10-19T13:55:11;14.60;50.90
68924;DHT22;55961;52.156;20.942;2022-10-19T14:06:46;14.00;52.30
68924;DHT22;55961;52.156;20.942;2022-10-19T14:09:39;13.90;52.90
68924;DHT22;55961;52.156;20.942;2022-10-19T14:12:17;13.80;52.90
68924;DHT22;55961;52.156;20.942;2022-10-19T14:14:45;13.70;52.60
68924;DHT22;55961;52.156;20.942;2022-10-19T14:17:20;13.60;52.40
68924;DHT22;55961;52.156;20.942;2022-10-19T14:19:56;13.50;52.50
68924;DHT22;55961;52.156;20.942;2022-10-19T14:22:26;13.40;52.80
68924;DHT22;55961;52.156;20.942;2022-10-19T14:27:26;13.30;53.20
68924;DHT22;55961;52.156;20.942;2022-10-19T14:29:53;13.20;56.30
68924;DHT22;55961;52.156;20.942;2022-10-19T14:32:23;13.20;58.30
68924;DHT22;55961;52.156;20.942;2022-10-19T14:34:51;13.10;59.40
68924;DHT22;55961;52.156;20.942;2022-10-19T14:37:22;13.10;59.80
68924;DHT22;55961;52.156;20.942;2022-10-19T14:42:39;13.00;59.80
68924;DHT22;55961;52.156;20.942;2022-10-19T14:45:19;12.90;60.10
68924;DHT22;55961;52.156;20.942;2022-10-19T14:47:54;12.90;59.20
68924;DHT22;55961;52.156;20.942;2022-10-19T14:50:37;12.90;58.80
68924;DHT22;55961;52.156;20.942;2022-10-19T14:55:54;12.70;57.00
68924;DHT22;55961;52.156;20.942;2022-10-19T14:58:22;12.70;56.30
68924;DHT22;55961;52.156;20.942;2022-10-19T15:00:50;12.60;55.60
68924;DHT22;55961;52.156;20.942;2022-10-19T15:03:26;12.50;55.30
68924;DHT22;55961;52.156;20.942;2022-10-19T15:06:03;12.40;55.40
68924;DHT22;55961;52.156;20.942;2022-10-19T15:08:39;12.20;54.60
68924;DHT22;55961;52.156;20.942;2022-10-19T15:11:23;12.20;54.30
68924;DHT22;55961;52.156;20.942;2022-10-19T15:13:55;12.00;53.80
68924;DHT22;55961;52.156;20.942;2022-10-19T15:16:32;11.90;53.60
68924;DHT22;55961;52.156;20.942;2022-10-19T15:19:03;11.80;53.60
68924;DHT22;55961;52.156;20.942;2022-10-19T15:21:30;11.70;53.80
68924;DHT22;55961;52.156;20.942;2022-10-19T15:24:07;11.60;54.10
68924;DHT22;55961;52.156;20.942;2022-10-19T15:26:33;11.50;54.10
68924;DHT22;55961;52.156;20.942;2022-10-19T15:29:17;11.40;54.50
68924;DHT22;55961;52.156;20.942;2022-10-19T15:31:44;11.30;54.90
68924;DHT22;55961;52.156;20.942;2022-10-19T15:34:22;11.30;55.40
68924;DHT22;55961;52.156;20.942;2022-10-19T15:37:00;11.20;55.50
68924;DHT22;55961;52.156;20.942;2022-10-19T15:39:31;11.10;55.50
68924;DHT22;55961;52.156;20.942;2022-10-19T15:44:48;10.90;55.90
68924;DHT22;55961;52.156;20.942;2022-10-19T15:54:41;10.60;56.20
68924;DHT22;55961;52.156;20.942;2022-10-19T15:59:50;10.50;56.50
68924;DHT22;55961;52.156;20.942;2022-10-19T16:02:15;10.40;57.00
68924;DHT22;55961;52.156;20.942;2022-10-19T16:04:41;10.40;57.00
68924;DHT22;55961;52.156;20.942;2022-10-19T16:07:16;10.30;57.40
68924;DHT22;55961;52.156;20.942;2022-10-19T16:09:43;10.20;57.70
68924;DHT22;55961;52.156;20.942;2022-10-19T16:12:10;10.20;57.80
68924;DHT22;55961;52.156;20.942;2022-10-19T16:14:36;10.10;58.30
68924;DHT22;55961;52.156;20.942;2022-10-19T16:17:01;10.10;58.40
68924;DHT22;55961;52.156;20.942;2022-10-19T16:19:27;10.00;58.50
68924;DHT22;55961;52.156;20.942;2022-10-19T16:21:53;10.00;58.80
68924;DHT22;55961;52.156;20.942;2022-10-19T16:24:19;9.90;59.10
68924;DHT22;55961;52.156;20.942;2022-10-19T16:26:45;9.90;59.40
68924;DHT22;55961;52.156;20.942;2022-10-19T16:29:10;9.90;59.70
68924;DHT22;55961;52.156;20.942;2022-10-19T16:31:37;9.80;60.00
68924;DHT22;55961;52.156;20.942;2022-10-19T16:34:02;9.80;60.20
68924;DHT22;55961;52.156;20.942;2022-10-19T16:36:28;9.70;60.30
68924;DHT22;55961;52.156;20.942;2022-10-19T16:38:54;9.70;60.50
68924;DHT22;55961;52.156;20.942;2022-10-19T16:41:20;9.70;60.80
68924;DHT22;55961;52.156;20.942;2022-10-19T16:43:46;9.60;61.00
68924;DHT22;55961;52.156;20.942;2022-10-19T16:46:13;9.60;61.20
68924;DHT22;55961;52.156;20.942;2022-10-19T16:48:39;9.50;61.50
68924;DHT22;55961;52.156;20.942;2022-10-19T16:53:32;9.50;62.00
68924;DHT22;55961;52.156;20.942;2022-10-19T16:56:05;9.40;62.20
68924;DHT22;55961;52.156;20.942;2022-10-19T16:58:31;9.40;62.60
68924;DHT22;55961;52.156;20.942;2022-10-19T17:00:57;9.40;62.60
68924;DHT22;55961;52.156;20.942;2022-10-19T17:03:29;9.30;62.80
68924;DHT22;55961;52.156;20.942;2022-10-19T17:05:54;9.30;62.90
68924;DHT22;55961;52.156;20.942;2022-10-19T17:08:23;9.30;62.90
68924;DHT22;55961;52.156;20.942;2022-10-19T17:10:49;9.20;63.00
68924;DHT22;55961;52.156;20.942;2022-10-19T17:13:15;9.20;63.20
68924;DHT22;55961;52.156;20.942;2022-10-19T17:15:40;9.20;63.40
68924;DHT22;55961;52.156;20.942;2022-10-19T17:18:06;9.10;63.60
68924;DHT22;55961;52.156;20.942;2022-10-19T17:20:32;9.10;63.50
68924;DHT22;55961;52.156;20.942;2022-10-19T17:22:58;9.00;63.60
68924;DHT22;55961;52.156;20.942;2022-10-19T17:25:24;9.00;63.60
68924;DHT22;55961;52.156;20.942;2022-10-19T17:27:51;9.00;63.50
68924;DHT22;55961;52.156;20.942;2022-10-19T17:30:17;8.90;63.50
68924;DHT22;55961;52.156;20.942;2022-10-19T17:32:43;8.90;63.50
68924;DHT22;55961;52.156;20.942;2022-10-19T17:35:09;8.90;63.50
68924;DHT22;55961;52.156;20.942;2022-10-19T17:37:35;8.80;63.70
68924;DHT22;55961;52.156;20.942;2022-10-19T17:40:01;8.80;63.80
68924;DHT22;55961;52.156;20.942;2022-10-19T17:42:27;8.80;63.80
68924;DHT22;55961;52.156;20.942;2022-10-19T17:44:53;8.70;63.90
68924;DHT22;55961;52.156;20.942;2022-10-19T17:47:19;8.70;63.90
68924;DHT22;55961;52.156;20.942;2022-10-19T17:49:45;8.70;63.90
68924;DHT22;55961;52.156;20.942;2022-10-19T17:52:10;8.60;64.00
68924;DHT22;55961;52.156;20.942;2022-10-19T17:54:36;8.60;64.10
68924;DHT22;55961;52.156;20.942;2022-10-19T17:57:02;8.60;64.20
68924;DHT22;55961;52.156;20.942;2022-10-19T17:59:28;8.60;64.20
68924;DHT22;55961;52.156;20.942;2022-10-19T18:01:54;8.50;64.20
68924;DHT22;55961;52.156;20.942;2022-10-19T18:04:20;8.50;64.30
68924;DHT22;55961;52.156;20.942;2022-10-19T18:06:46;8.50;64.30
68924;DHT22;55961;52.156;20.942;2022-10-19T18:09:11;8.40;64.50
68924;DHT22;55961;52.156;20.942;2022-10-19T18:11:41;8.40;64.40
68924;DHT22;55961;52.156;20.942;2022-10-19T18:14:09;8.40;64.50
68924;DHT22;55961;52.156;20.942;2022-10-19T18:16:38;8.40;64.70